createdAt,value
2019-06-27T00:01:06.160Z,19.40
2019-06-27T00:03:34.757Z,19.40
2019-06-27T00:06:03.310Z,19.30
2019-06-27T00:08:31.910Z,19.30
2019-06-27T00:11:00.434Z,19.30
2019-06-27T00:13:28.886Z,19.30
2019-06-27T00:15:57.812Z,19.30
2019-06-27T00:18:26.290Z,19.30
2019-06-27T00:20:56.456Z,19.10
2019-06-27T00:23:24.923Z,19.20
2019-06-27T00:25:53.450Z,19.10
2019-06-27T00:28:21.906Z,19.10
2019-06-27T00:30:50.511Z,19.10
2019-06-27T00:33:19.037Z,19.10
2019-06-27T00:35:47.924Z,19.10
2019-06-27T00:38:16.445Z,19.00
2019-06-27T00:40:45.096Z,19.00
2019-06-27T00:43:13.544Z,19.00
2019-06-27T00:45:42.505Z,18.90
2019-06-27T00:48:13.099Z,18.90
2019-06-27T00:50:41.702Z,18.90
2019-06-27T00:53:10.229Z,18.90
2019-06-27T00:55:38.820Z,18.90
2019-06-27T00:58:07.414Z,18.90
2019-06-27T01:00:36.006Z,18.90
2019-06-27T01:03:04.729Z,18.80
2019-06-27T01:05:33.288Z,18.90
2019-06-27T01:08:01.825Z,18.70
2019-06-27T01:10:30.312Z,18.80
2019-06-27T01:12:58.854Z,18.70
2019-06-27T01:15:27.391Z,18.80
2019-06-27T01:17:56.139Z,18.60
2019-06-27T01:20:24.688Z,18.40
2019-06-27T01:22:53.396Z,18.40
2019-06-27T01:25:21.965Z,18.40
2019-06-27T01:27:50.600Z,18.40
2019-06-27T01:30:20.131Z,18.50
2019-06-27T01:32:48.720Z,18.40
2019-06-27T01:35:17.465Z,18.40
2019-06-27T01:37:45.996Z,18.40
2019-06-27T01:40:14.588Z,18.40
2019-06-27T01:42:43.184Z,18.40
2019-06-27T01:45:13.491Z,18.30
2019-06-27T01:47:41.946Z,18.30
2019-06-27T01:50:10.800Z,18.20
2019-06-27T01:52:39.263Z,18.20
2019-06-27T01:55:08.164Z,18.20
2019-06-27T01:57:46.305Z,18.20
2019-06-27T02:00:09.592Z,18.10
2019-06-27T02:02:38.213Z,18.20
2019-06-27T02:05:08.317Z,18.10
2019-06-27T02:07:36.919Z,18.10
2019-06-27T02:10:07.665Z,18.00
2019-06-27T02:12:36.292Z,17.90
2019-06-27T02:15:06.864Z,17.90
2019-06-27T02:17:35.465Z,17.90
2019-06-27T02:20:09.973Z,17.90
2019-06-27T02:22:38.641Z,18.00
2019-06-27T02:25:09.259Z,17.90
2019-06-27T02:27:39.329Z,17.90
2019-06-27T02:30:07.998Z,17.90
2019-06-27T02:32:36.582Z,18.00
2019-06-27T02:35:07.474Z,18.00
2019-06-27T02:37:36.164Z,18.00
2019-06-27T02:40:07.445Z,17.90
2019-06-27T02:42:35.922Z,17.90
2019-06-27T02:45:07.466Z,17.90
2019-06-27T02:47:36.073Z,17.90
2019-06-27T02:50:06.756Z,17.90
2019-06-27T02:52:35.340Z,17.90
2019-06-27T02:55:04.551Z,17.90
2019-06-27T02:57:33.068Z,17.80
2019-06-27T03:00:01.676Z,17.70
2019-06-27T03:02:30.215Z,17.80
2019-06-27T03:04:58.740Z,18.00
2019-06-27T03:07:27.344Z,18.00
2019-06-27T03:09:56.014Z,18.00
2019-06-27T03:12:24.606Z,18.00
2019-06-27T03:14:53.076Z,17.90
2019-06-27T03:17:21.609Z,18.00
2019-06-27T03:19:50.122Z,17.90
2019-06-27T03:22:18.726Z,18.00
2019-06-27T03:24:47.203Z,17.80
2019-06-27T03:27:15.908Z,17.90
2019-06-27T03:29:44.440Z,17.90
2019-06-27T03:32:13.133Z,17.90
2019-06-27T03:34:41.670Z,17.90
2019-06-27T03:37:10.374Z,17.90
2019-06-27T03:39:38.836Z,17.90
2019-06-27T03:42:07.410Z,17.80
2019-06-27T03:44:35.962Z,17.80
2019-06-27T03:47:04.429Z,17.80
2019-06-27T03:49:32.952Z,17.80
2019-06-27T03:52:01.514Z,17.80
2019-06-27T03:54:30.172Z,17.80
2019-06-27T03:56:58.667Z,17.80
2019-06-27T03:59:27.404Z,17.90
2019-06-27T04:01:55.937Z,17.90
2019-06-27T04:04:24.553Z,17.70
2019-06-27T04:06:53.154Z,17.70
2019-06-27T04:09:21.758Z,17.70
2019-06-27T04:11:50.296Z,17.90
2019-06-27T04:14:18.830Z,17.70
2019-06-27T04:16:49.329Z,17.60
2019-06-27T04:19:17.675Z,17.60
2019-06-27T04:21:46.196Z,17.50
2019-06-27T04:24:14.894Z,17.50
2019-06-27T04:26:43.600Z,17.50
2019-06-27T04:29:32.158Z,17.50
2019-06-27T04:31:42.386Z,17.60
2019-06-27T04:34:10.984Z,17.60
2019-06-27T04:36:39.605Z,17.60
2019-06-27T04:39:08.062Z,17.60
2019-06-27T04:41:36.657Z,17.70
2019-06-27T04:44:05.221Z,17.70
2019-06-27T04:46:33.903Z,17.70
2019-06-27T04:49:02.430Z,17.70
2019-06-27T04:51:31.021Z,17.70
2019-06-27T04:53:59.552Z,17.70
2019-06-27T04:56:28.281Z,17.70
2019-06-27T04:58:56.733Z,17.60
2019-06-27T05:01:26.064Z,17.50
2019-06-27T05:03:54.657Z,17.60
2019-06-27T05:06:23.213Z,17.60
2019-06-27T05:08:51.734Z,17.50
2019-06-27T05:11:20.212Z,17.50
2019-06-27T05:13:48.830Z,17.60
2019-06-27T05:16:17.372Z,17.90
2019-06-27T05:18:45.960Z,18.00
2019-06-27T05:21:14.493Z,18.00
2019-06-27T05:23:43.080Z,18.00
2019-06-27T05:26:11.623Z,18.20
2019-06-27T05:28:40.090Z,18.30
2019-06-27T05:31:08.729Z,18.40
2019-06-27T05:33:37.350Z,18.40
2019-06-27T05:36:05.943Z,18.40
2019-06-27T05:38:34.465Z,18.50
2019-06-27T05:41:03.121Z,18.60
2019-06-27T05:43:31.602Z,18.50
2019-06-27T05:46:00.118Z,18.50
2019-06-27T05:48:28.571Z,18.50
2019-06-27T05:50:57.106Z,18.50
2019-06-27T05:53:25.685Z,18.60
2019-06-27T05:55:54.355Z,18.70
2019-06-27T05:58:22.839Z,18.80
2019-06-27T06:00:51.454Z,19.00
2019-06-27T06:03:19.981Z,19.10
2019-06-27T06:05:48.504Z,19.20
2019-06-27T06:08:16.977Z,19.20
2019-06-27T06:10:45.519Z,19.00
2019-06-27T06:13:14.036Z,19.10
2019-06-27T06:15:42.555Z,19.20
2019-06-27T06:18:11.136Z,19.30
2019-06-27T06:20:39.662Z,19.50
2019-06-27T06:23:08.291Z,19.60
2019-06-27T06:25:36.816Z,19.50
2019-06-27T06:28:05.752Z,19.50
2019-06-27T06:30:43.951Z,19.80
2019-06-27T06:33:04.674Z,19.90
2019-06-27T06:35:33.299Z,20.10
2019-06-27T06:38:01.977Z,19.70
2019-06-27T06:40:30.516Z,19.60
2019-06-27T06:43:00.594Z,19.60
2019-06-27T06:45:29.533Z,19.80
2019-06-27T06:47:58.016Z,20.10
2019-06-27T06:50:26.559Z,20.20
2019-06-27T06:52:58.486Z,20.40
2019-06-27T06:55:27.181Z,20.40
2019-06-27T06:57:55.722Z,20.50
2019-06-27T07:00:24.700Z,20.50
2019-06-27T07:02:53.233Z,20.70
2019-06-27T07:05:21.787Z,20.80
2019-06-27T07:07:50.321Z,21.00
2019-06-27T07:10:18.958Z,21.20
2019-06-27T07:12:47.489Z,21.30
2019-06-27T07:15:16.148Z,21.40
2019-06-27T07:17:44.674Z,21.70
2019-06-27T07:20:13.779Z,21.80
2019-06-27T07:22:42.348Z,21.80
2019-06-27T07:25:12.719Z,21.80
2019-06-27T07:27:41.326Z,21.90
2019-06-27T07:30:10.022Z,22.00
2019-06-27T07:32:38.548Z,22.10
2019-06-27T07:35:07.208Z,22.10
2019-06-27T07:37:35.734Z,22.10
2019-06-27T07:40:07.426Z,22.60
2019-06-27T07:42:36.044Z,22.90
2019-06-27T07:45:06.605Z,23.00
2019-06-27T07:47:35.238Z,23.20
2019-06-27T07:50:07.613Z,23.20
2019-06-27T07:52:36.132Z,23.50
2019-06-27T07:55:06.499Z,23.50
2019-06-27T07:57:34.971Z,23.70
2019-06-27T08:00:05.043Z,23.70
2019-06-27T08:02:33.712Z,24.00
2019-06-27T08:05:03.052Z,24.00
2019-06-27T08:07:31.599Z,24.20
2019-06-27T08:10:00.280Z,24.50
2019-06-27T08:12:28.841Z,24.80
2019-06-27T08:14:58.832Z,24.70
2019-06-27T08:17:27.366Z,24.70
2019-06-27T08:19:55.826Z,24.70
2019-06-27T08:22:24.428Z,24.70
2019-06-27T08:24:52.888Z,25.00
2019-06-27T08:27:21.988Z,25.10
2019-06-27T08:29:50.473Z,25.50
2019-06-27T08:32:19.081Z,25.60
2019-06-27T08:34:48.374Z,25.90
2019-06-27T08:37:17.596Z,26.00
2019-06-27T08:39:46.078Z,26.20
2019-06-27T08:42:14.690Z,26.40
2019-06-27T08:44:43.243Z,26.40
2019-06-27T08:47:11.905Z,26.70
2019-06-27T08:49:40.429Z,26.60
2019-06-27T08:52:09.092Z,26.70
2019-06-27T08:54:37.678Z,26.80
2019-06-27T08:57:06.164Z,26.90
2019-06-27T08:59:34.682Z,26.90
2019-06-27T09:02:08.751Z,27.10
2019-06-27T09:04:35.303Z,27.20
2019-06-27T09:07:03.975Z,27.20
2019-06-27T09:09:32.541Z,27.50
2019-06-27T09:12:01.015Z,27.40
2019-06-27T09:14:29.660Z,27.80
2019-06-27T09:16:58.151Z,27.80
2019-06-27T09:19:26.766Z,28.00
2019-06-27T09:21:55.228Z,27.40
2019-06-27T09:24:23.833Z,27.40
2019-06-27T09:26:52.365Z,27.80
2019-06-27T09:29:20.901Z,28.00
2019-06-27T09:31:49.429Z,28.30
2019-06-27T09:34:21.227Z,28.40
2019-06-27T09:36:48.261Z,28.50
2019-06-27T09:39:16.778Z,28.60
2019-06-27T09:41:45.312Z,28.60
2019-06-27T09:44:13.813Z,28.30
2019-06-27T09:46:43.221Z,28.10
2019-06-27T09:49:11.743Z,28.50
2019-06-27T09:51:40.595Z,28.80
2019-06-27T09:54:09.140Z,28.90
2019-06-27T09:56:37.889Z,28.60
2019-06-27T09:59:06.481Z,28.80
2019-06-27T10:01:35.016Z,29.00
2019-06-27T10:04:03.746Z,29.40
2019-06-27T10:06:32.262Z,29.70
2019-06-27T10:09:00.845Z,29.40
2019-06-27T10:11:29.413Z,29.60
2019-06-27T10:13:57.891Z,29.80
2019-06-27T10:16:26.512Z,30.00
2019-06-27T10:18:55.096Z,29.80
2019-06-27T10:21:23.647Z,29.90
2019-06-27T10:23:52.175Z,30.70
2019-06-27T10:26:20.705Z,30.80
2019-06-27T10:28:49.156Z,30.40
2019-06-27T10:31:17.711Z,30.50
2019-06-27T10:33:46.284Z,30.10
2019-06-27T10:36:14.889Z,29.90
2019-06-27T10:38:43.485Z,30.20
2019-06-27T10:41:12.026Z,30.40
2019-06-27T10:43:40.477Z,30.80
2019-06-27T10:46:09.000Z,30.90
2019-06-27T10:48:37.461Z,31.20
2019-06-27T10:51:05.992Z,31.70
2019-06-27T10:53:34.454Z,31.30
2019-06-27T10:56:03.039Z,31.30
2019-06-27T10:58:31.502Z,31.30
2019-06-27T11:00:59.957Z,31.30
2019-06-27T11:03:28.581Z,30.90
2019-06-27T11:05:57.080Z,31.20
2019-06-27T11:08:25.616Z,31.20
2019-06-27T11:10:55.823Z,31.00
2019-06-27T11:13:24.873Z,31.00
2019-06-27T11:15:53.352Z,30.90
2019-06-27T11:18:22.017Z,31.60
2019-06-27T11:20:50.476Z,31.70
2019-06-27T11:23:19.139Z,31.60
2019-06-27T11:25:47.669Z,31.90
2019-06-27T11:28:16.296Z,32.20
2019-06-27T11:30:45.011Z,32.20
2019-06-27T11:33:13.660Z,32.20
2019-06-27T11:35:42.124Z,32.40
2019-06-27T11:38:10.741Z,32.40
2019-06-27T11:40:39.378Z,32.20
2019-06-27T11:43:07.950Z,32.10
2019-06-27T11:45:36.422Z,31.60
2019-06-27T11:48:05.101Z,31.40
2019-06-27T11:50:33.584Z,31.20
2019-06-27T11:53:02.127Z,31.30
2019-06-27T11:55:30.591Z,31.40
2019-06-27T11:57:59.286Z,31.80
2019-06-27T12:00:27.885Z,32.00
2019-06-27T12:02:56.564Z,32.20
2019-06-27T12:05:25.050Z,32.20
2019-06-27T12:07:53.697Z,32.20
2019-06-27T12:10:22.419Z,32.20
2019-06-27T12:13:10.296Z,32.10
2019-06-27T12:15:38.755Z,32.20
2019-06-27T12:18:07.298Z,32.30
2019-06-27T12:20:35.771Z,32.00
2019-06-27T12:23:04.234Z,32.20
2019-06-27T12:25:32.785Z,31.90
2019-06-27T12:28:01.505Z,31.90
2019-06-27T12:30:30.133Z,31.90
2019-06-27T12:32:58.709Z,31.80
2019-06-27T12:35:27.266Z,31.80
2019-06-27T12:37:55.804Z,31.70
2019-06-27T12:40:24.476Z,31.60
2019-06-27T12:42:52.937Z,31.70
2019-06-27T12:45:21.765Z,31.80
2019-06-27T12:47:50.216Z,31.10
2019-06-27T12:50:18.760Z,31.30
2019-06-27T12:52:47.338Z,31.50
2019-06-27T12:55:16.055Z,31.20
2019-06-27T12:57:44.634Z,31.50
2019-06-27T13:00:15.113Z,31.20
2019-06-27T13:02:43.588Z,31.00
2019-06-27T13:05:12.251Z,31.50
2019-06-27T13:07:40.713Z,31.80
2019-06-27T13:10:10.033Z,32.00
2019-06-27T13:12:38.877Z,31.70
2019-06-27T13:15:08.110Z,31.50
2019-06-27T13:17:36.696Z,31.50
2019-06-27T13:20:07.126Z,31.70
2019-06-27T13:22:35.984Z,31.20
2019-06-27T13:25:05.494Z,31.00
2019-06-27T13:27:34.128Z,30.90
2019-06-27T13:30:02.685Z,31.20
2019-06-27T13:32:31.278Z,31.30
2019-06-27T13:34:59.743Z,31.30
2019-06-27T13:37:30.121Z,31.40
2019-06-27T13:39:58.634Z,31.50
2019-06-27T13:42:27.184Z,31.20
2019-06-27T13:44:55.982Z,30.50
2019-06-27T13:47:24.435Z,30.80
2019-06-27T13:49:53.099Z,30.80
2019-06-27T13:52:21.585Z,30.50
2019-06-27T13:54:50.140Z,30.70
2019-06-27T13:57:18.742Z,30.60
2019-06-27T13:59:47.321Z,30.40
2019-06-27T14:02:15.854Z,30.60
2019-06-27T14:04:56.645Z,30.70
2019-06-27T14:07:14.728Z,31.00
2019-06-27T14:09:53.648Z,30.90
2019-06-27T14:12:13.843Z,30.90
2019-06-27T14:14:55.436Z,30.90
2019-06-27T14:17:31.970Z,30.70
2019-06-27T14:20:01.927Z,30.70
2019-06-27T14:22:34.042Z,30.70
2019-06-27T14:25:01.353Z,30.80
2019-06-27T14:27:30.358Z,30.50
2019-06-27T14:29:58.845Z,30.60
2019-06-27T14:32:29.086Z,30.50
2019-06-27T14:35:10.718Z,30.20
2019-06-27T14:37:27.873Z,30.40
2019-06-27T14:39:56.712Z,30.30
2019-06-27T14:42:25.456Z,30.10
2019-06-27T14:44:53.964Z,29.90
2019-06-27T14:47:22.560Z,29.90
2019-06-27T14:49:51.090Z,29.90
2019-06-27T14:52:19.638Z,30.00
2019-06-27T14:54:48.428Z,29.70
2019-06-27T14:57:16.948Z,29.80
2019-06-27T14:59:45.436Z,29.70
2019-06-27T15:02:13.957Z,29.80
2019-06-27T15:04:42.723Z,29.90
2019-06-27T15:07:11.280Z,30.00
2019-06-27T15:09:39.805Z,29.70
2019-06-27T15:12:08.344Z,29.50
2019-06-27T15:14:37.052Z,29.70
2019-06-27T15:17:05.641Z,29.60
2019-06-27T15:19:34.245Z,29.60
2019-06-27T15:22:02.844Z,29.40
2019-06-27T15:24:33.024Z,29.30
2019-06-27T15:27:01.573Z,29.20
2019-06-27T15:29:30.170Z,29.20
2019-06-27T15:31:58.625Z,29.30
2019-06-27T15:34:27.242Z,29.30
2019-06-27T15:36:55.750Z,29.20
2019-06-27T15:39:24.357Z,29.20
2019-06-27T15:41:52.896Z,29.20
2019-06-27T15:44:21.426Z,29.10
2019-06-27T15:46:53.761Z,29.10
2019-06-27T15:49:20.311Z,29.10
2019-06-27T15:51:48.773Z,29.00
2019-06-27T15:54:17.225Z,28.80
2019-06-27T15:56:45.755Z,28.70
2019-06-27T15:59:14.214Z,28.60
2019-06-27T16:01:42.818Z,28.60
2019-06-27T16:04:24.505Z,28.60
2019-06-27T16:06:41.825Z,28.70
2019-06-27T16:09:10.302Z,28.60
2019-06-27T16:11:38.933Z,28.60
2019-06-27T16:14:07.389Z,28.40
2019-06-27T16:16:35.923Z,28.30
2019-06-27T16:19:04.523Z,28.20
2019-06-27T16:21:33.159Z,28.20
2019-06-27T16:24:01.684Z,28.10
2019-06-27T16:26:30.230Z,27.90
2019-06-27T16:28:58.832Z,27.80
2019-06-27T16:31:27.367Z,27.80
2019-06-27T16:33:56.053Z,27.60
2019-06-27T16:36:26.227Z,27.40
2019-06-27T16:38:54.776Z,27.30
2019-06-27T16:41:23.248Z,27.30
2019-06-27T16:43:51.795Z,27.40
2019-06-27T16:46:20.308Z,27.20
2019-06-27T16:48:49.013Z,27.30
2019-06-27T16:51:20.304Z,27.20
2019-06-27T16:53:47.799Z,27.20
2019-06-27T16:56:16.410Z,27.20
2019-06-27T16:58:44.942Z,27.00
2019-06-27T17:01:13.583Z,26.90
2019-06-27T17:03:42.037Z,26.90
2019-06-27T17:06:10.631Z,27.00
2019-06-27T17:08:39.154Z,26.90
2019-06-27T17:11:07.744Z,26.80
2019-06-27T17:13:36.201Z,26.60
2019-06-27T17:16:04.726Z,26.40
2019-06-27T17:18:33.368Z,26.50
2019-06-27T17:21:01.905Z,26.40
2019-06-27T17:23:33.544Z,26.30
2019-06-27T17:26:02.246Z,26.20
2019-06-27T17:28:30.744Z,26.10
2019-06-27T17:30:59.348Z,25.90
2019-06-27T17:33:27.818Z,25.90
2019-06-27T17:35:56.441Z,25.90
2019-06-27T17:38:24.952Z,25.90
2019-06-27T17:40:53.497Z,25.70
2019-06-27T17:43:22.084Z,25.60
2019-06-27T17:45:50.864Z,25.70
2019-06-27T17:48:19.383Z,25.60
2019-06-27T17:50:47.937Z,25.50
2019-06-27T17:53:16.513Z,25.30
2019-06-27T17:55:45.018Z,25.40
2019-06-27T17:58:13.708Z,25.30
2019-06-27T18:00:42.248Z,25.30
2019-06-27T18:03:10.889Z,25.30
2019-06-27T18:05:39.356Z,25.20
2019-06-27T18:08:08.300Z,25.10
2019-06-27T18:10:36.844Z,25.00
2019-06-27T18:13:05.399Z,25.00
2019-06-27T18:15:33.946Z,24.90
2019-06-27T18:18:02.547Z,24.80
2019-06-27T18:20:31.137Z,24.60
2019-06-27T18:22:59.663Z,24.50
2019-06-27T18:25:28.239Z,24.50
2019-06-27T18:27:56.835Z,24.50
2019-06-27T18:30:25.671Z,24.50
2019-06-27T18:32:54.209Z,24.30
2019-06-27T18:35:22.879Z,24.20
2019-06-27T18:37:51.399Z,24.30
2019-06-27T18:40:20.378Z,24.20
2019-06-27T18:42:48.953Z,24.20
2019-06-27T18:45:19.040Z,24.10
2019-06-27T18:47:47.640Z,24.10
2019-06-27T18:50:16.264Z,24.00
2019-06-27T18:53:04.118Z,24.00
2019-06-27T18:55:33.407Z,24.00
2019-06-27T18:58:02.717Z,23.90
2019-06-27T19:00:31.317Z,23.70
2019-06-27T19:02:59.952Z,23.50
2019-06-27T19:05:28.425Z,23.30
2019-06-27T19:07:58.611Z,23.20
2019-06-27T19:10:27.175Z,23.20
2019-06-27T19:12:55.798Z,23.10
2019-06-27T19:15:24.338Z,23.10
2019-06-27T19:17:53.025Z,23.00
2019-06-27T19:20:41.569Z,22.90
2019-06-27T19:23:11.857Z,23.00
2019-06-27T19:25:42.045Z,22.90
2019-06-27T19:28:10.647Z,22.90
2019-06-27T19:30:39.218Z,22.90
2019-06-27T19:33:07.813Z,22.90
2019-06-27T19:35:36.355Z,22.70
2019-06-27T19:38:04.951Z,22.60
2019-06-27T19:40:33.424Z,22.60
2019-06-27T19:43:02.078Z,22.50
2019-06-27T19:45:30.690Z,22.50
2019-06-27T19:47:59.149Z,22.50
2019-06-27T19:50:27.683Z,22.50
2019-06-27T19:52:56.521Z,22.50
2019-06-27T19:55:25.243Z,22.30
2019-06-27T19:57:53.842Z,22.20
2019-06-27T20:00:23.638Z,22.20
2019-06-27T20:02:52.419Z,22.20
2019-06-27T20:05:21.023Z,22.00
2019-06-27T20:07:49.472Z,21.90
2019-06-27T20:10:18.230Z,21.90
2019-06-27T20:12:46.825Z,21.90
2019-06-27T20:15:15.541Z,21.80
2019-06-27T20:17:44.059Z,21.70
2019-06-27T20:20:12.724Z,21.60
2019-06-27T20:22:41.424Z,21.50
2019-06-27T20:25:10.297Z,21.70
2019-06-27T20:27:38.812Z,21.70
2019-06-27T20:30:08.030Z,21.60
2019-06-27T20:32:36.795Z,21.60
2019-06-27T20:35:07.121Z,21.50
2019-06-27T20:37:35.819Z,21.40
2019-06-27T20:40:07.605Z,21.30
2019-06-27T20:42:36.476Z,21.40
2019-06-27T20:45:07.176Z,21.30
2019-06-27T20:47:35.854Z,21.10
2019-06-27T20:50:05.260Z,21.10
2019-06-27T20:52:33.810Z,21.00
2019-06-27T20:55:02.679Z,21.00
2019-06-27T20:57:31.170Z,20.90
2019-06-27T20:59:59.688Z,20.90
2019-06-27T21:02:28.175Z,20.80
2019-06-27T21:04:56.748Z,20.70
2019-06-27T21:07:25.297Z,20.70
2019-06-27T21:09:55.536Z,20.60
2019-06-27T21:12:24.001Z,20.60
2019-06-27T21:14:52.589Z,20.60
2019-06-27T21:17:24.157Z,20.50
2019-06-27T21:19:52.641Z,20.40
2019-06-27T21:22:21.211Z,20.40
2019-06-27T21:24:49.804Z,20.40
2019-06-27T21:27:18.470Z,20.40
2019-06-27T21:29:47.009Z,20.50
2019-06-27T21:32:30.495Z,20.30
2019-06-27T21:34:45.776Z,20.30
2019-06-27T21:37:14.386Z,20.20
2019-06-27T21:39:42.929Z,20.20
2019-06-27T21:42:11.529Z,20.10
2019-06-27T21:44:40.060Z,20.00
2019-06-27T21:47:08.992Z,19.90
2019-06-27T21:49:37.902Z,19.90
2019-06-27T21:52:06.473Z,19.80
2019-06-27T21:54:35.061Z,19.80
2019-06-27T21:57:03.691Z,19.70
2019-06-27T21:59:32.252Z,19.60
2019-06-27T22:02:00.851Z,19.60
2019-06-27T22:04:30.594Z,19.60
2019-06-27T22:06:59.324Z,19.60
2019-06-27T22:09:27.842Z,19.60
2019-06-27T22:11:56.536Z,19.70
2019-06-27T22:14:25.052Z,19.70
2019-06-27T22:16:53.513Z,19.60
2019-06-27T22:19:22.028Z,19.60
2019-06-27T22:21:50.484Z,19.60
2019-06-27T22:24:19.012Z,19.50
2019-06-27T22:26:47.778Z,19.40
2019-06-27T22:29:16.395Z,19.20
2019-06-27T22:31:44.849Z,19.20
2019-06-27T22:34:13.672Z,19.20
2019-06-27T22:36:42.129Z,19.20
2019-06-27T22:39:39.865Z,19.00
2019-06-27T22:42:16.833Z,19.00
2019-06-27T22:45:03.124Z,18.90
2019-06-27T22:47:49.977Z,18.80
2019-06-27T22:50:28.941Z,18.90
2019-06-27T22:53:07.795Z,18.80
2019-06-27T22:55:36.392Z,18.80
2019-06-27T22:58:04.853Z,18.70
2019-06-27T23:00:33.359Z,18.70
2019-06-27T23:03:02.026Z,18.70
2019-06-27T23:05:30.491Z,18.60
2019-06-27T23:07:59.083Z,18.50
2019-06-27T23:10:27.565Z,18.40
2019-06-27T23:12:56.091Z,18.50
2019-06-27T23:15:24.575Z,18.50
2019-06-27T23:17:53.232Z,18.50
2019-06-27T23:20:21.765Z,18.40
2019-06-27T23:22:50.359Z,18.20
2019-06-27T23:25:18.841Z,18.10
2019-06-27T23:27:47.828Z,18.10
2019-06-27T23:30:16.422Z,18.10
2019-06-27T23:32:44.932Z,18.10
2019-06-27T23:35:13.603Z,18.00
2019-06-27T23:37:42.155Z,17.90
2019-06-27T23:40:31.635Z,17.70
2019-06-27T23:43:00.088Z,17.70
2019-06-27T23:45:28.601Z,17.70
2019-06-27T23:47:57.066Z,17.70
2019-06-27T23:50:25.835Z,17.70
2019-06-27T23:52:54.361Z,17.70
2019-06-27T23:55:23.025Z,17.70
2019-06-27T23:57:51.526Z,17.70
